sensor_id;sensor_type;location;lat;lon;timestamp;temperature;humidity
1175;DHT22;576;48.418;10.074;2024-02-21T00:00:34;22.70;56.20
1175;DHT22;576;48.418;10.074;2024-02-21T00:03:05;22.70;56.20
1175;DHT22;576;48.418;10.074;2024-02-21T00:05:33;22.70;56.20
1175;DHT22;576;48.418;10.074;2024-02-21T00:08:02;22.70;56.20
1175;DHT22;576;48.418;10.074;2024-02-21T00:10:32;22.70;56.20
1175;DHT22;576;48.418;10.074;2024-02-21T00:13:02;22.70;56.20
1175;DHT22;576;48.418;10.074;2024-02-21T00:15:30;22.70;56.20
1175;DHT22;576;48.418;10.074;2024-02-21T00:17:58;22.70;56.20
1175;DHT22;576;48.418;10.074;2024-02-21T00:20:27;22.70;56.20
1175;DHT22;576;48.418;10.074;2024-02-21T00:22:55;22.70;56.20
1175;DHT22;576;48.418;10.074;2024-02-21T00:25:23;22.70;56.20
1175;DHT22;576;48.418;10.074;2024-02-21T00:27:53;22.70;56.20
1175;DHT22;576;48.418;10.074;2024-02-21T00:30:21;22.70;56.10
1175;DHT22;576;48.418;10.074;2024-02-21T00:32:50;22.70;56.10
1175;DHT22;576;48.418;10.074;2024-02-21T00:35:19;22.70;56.10
1175;DHT22;576;48.418;10.074;2024-02-21T00:37:47;22.70;56.10
1175;DHT22;576;48.418;10.074;2024-02-21T00:40:15;22.70;56.10
1175;DHT22;576;48.418;10.074;2024-02-21T00:42:47;22.70;56.10
1175;DHT22;576;48.418;10.074;2024-02-21T00:45:16;22.70;56.10
1175;DHT22;576;48.418;10.074;2024-02-21T00:47:45;22.70;56.10
1175;DHT22;576;48.418;10.074;2024-02-21T00:50:13;22.60;56.10
1175;DHT22;576;48.418;10.074;2024-02-21T00:52:41;22.60;56.00
1175;DHT22;576;48.418;10.074;2024-02-21T00:55:10;22.60;56.00
1175;DHT22;576;48.418;10.074;2024-02-21T00:57:38;22.60;56.00
1175;DHT22;576;48.418;10.074;2024-02-21T01:00:07;22.60;56.00
1175;DHT22;576;48.418;10.074;2024-02-21T01:02:37;22.60;56.00
1175;DHT22;576;48.418;10.074;2024-02-21T01:05:06;22.60;56.00
1175;DHT22;576;48.418;10.074;2024-02-21T01:07:34;22.60;56.00
1175;DHT22;576;48.418;10.074;2024-02-21T01:10:03;22.60;56.00
1175;DHT22;576;48.418;10.074;2024-02-21T01:12:31;22.60;56.00
1175;DHT22;576;48.418;10.074;2024-02-21T01:15:00;22.60;55.90
1175;DHT22;576;48.418;10.074;2024-02-21T01:17:28;22.60;56.00
1175;DHT22;576;48.418;10.074;2024-02-21T01:19:57;22.60;55.90
1175;DHT22;576;48.418;10.074;2024-02-21T01:22:26;22.60;55.90
1175;DHT22;576;48.418;10.074;2024-02-21T01:24:54;22.60;56.00
1175;DHT22;576;48.418;10.074;2024-02-21T01:27:22;22.60;56.00
1175;DHT22;576;48.418;10.074;2024-02-21T01:29:51;22.60;56.00
1175;DHT22;576;48.418;10.074;2024-02-21T01:32:19;22.60;56.00
1175;DHT22;576;48.418;10.074;2024-02-21T01:34:48;22.60;56.00
1175;DHT22;576;48.418;10.074;2024-02-21T01:37:18;22.60;56.00
1175;DHT22;576;48.418;10.074;2024-02-21T01:39:46;22.60;56.00
1175;DHT22;576;48.418;10.074;2024-02-21T01:42:16;22.50;56.00
1175;DHT22;576;48.418;10.074;2024-02-21T01:44:44;22.50;55.90
1175;DHT22;576;48.418;10.074;2024-02-21T01:47:13;22.60;55.90
1175;DHT22;576;48.418;10.074;2024-02-21T01:49:42;22.50;55.90
1175;DHT22;576;48.418;10.074;2024-02-21T01:52:11;22.50;55.90
1175;DHT22;576;48.418;10.074;2024-02-21T01:54:42;22.50;55.90
1175;DHT22;576;48.418;10.074;2024-02-21T01:57:11;22.50;55.90
1175;DHT22;576;48.418;10.074;2024-02-21T01:59:39;22.50;55.90
1175;DHT22;576;48.418;10.074;2024-02-21T02:02:08;22.50;55.90
1175;DHT22;576;48.418;10.074;2024-02-21T02:04:38;22.50;55.90
1175;DHT22;576;48.418;10.074;2024-02-21T02:07:07;22.50;55.90
1175;DHT22;576;48.418;10.074;2024-02-21T02:09:35;22.50;55.90
1175;DHT22;576;48.418;10.074;2024-02-21T02:12:06;22.50;55.90
1175;DHT22;576;48.418;10.074;2024-02-21T02:14:34;22.50;55.90
1175;DHT22;576;48.418;10.074;2024-02-21T02:17:02;22.50;55.90
1175;DHT22;576;48.418;10.074;2024-02-21T02:19:30;22.50;55.80
1175;DHT22;576;48.418;10.074;2024-02-21T02:22:06;22.40;55.90
1175;DHT22;576;48.418;10.074;2024-02-21T02:24:37;22.40;55.90
1175;DHT22;576;48.418;10.074;2024-02-21T02:27:06;22.40;55.80
1175;DHT22;576;48.418;10.074;2024-02-21T02:29:34;22.40;55.90
1175;DHT22;576;48.418;10.074;2024-02-21T02:32:02;22.40;55.80
1175;DHT22;576;48.418;10.074;2024-02-21T02:34:31;22.40;55.90
1175;DHT22;576;48.418;10.074;2024-02-21T02:36:59;22.40;55.90
1175;DHT22;576;48.418;10.074;2024-02-21T02:39:27;22.40;55.90
1175;DHT22;576;48.418;10.074;2024-02-21T02:41:57;22.40;55.80
1175;DHT22;576;48.418;10.074;2024-02-21T02:44:25;22.40;55.80
1175;DHT22;576;48.418;10.074;2024-02-21T02:46:53;22.30;55.90
1175;DHT22;576;48.418;10.074;2024-02-21T02:49:21;22.30;55.90
1175;DHT22;576;48.418;10.074;2024-02-21T02:51:50;22.30;55.90
1175;DHT22;576;48.418;10.074;2024-02-21T02:54:18;22.30;55.90
1175;DHT22;576;48.418;10.074;2024-02-21T02:56:46;22.30;55.90
1175;DHT22;576;48.418;10.074;2024-02-21T02:59:16;22.30;55.90
1175;DHT22;576;48.418;10.074;2024-02-21T03:01:44;22.30;55.90
1175;DHT22;576;48.418;10.074;2024-02-21T03:04:12;22.30;55.90
1175;DHT22;576;48.418;10.074;2024-02-21T03:06:40;22.20;55.90
1175;DHT22;576;48.418;10.074;2024-02-21T03:09:08;22.20;55.90
1175;DHT22;576;48.418;10.074;2024-02-21T03:11:37;22.20;55.90
1175;DHT22;576;48.418;10.074;2024-02-21T03:14:08;22.20;55.90
1175;DHT22;576;48.418;10.074;2024-02-21T03:16:37;22.20;55.90
1175;DHT22;576;48.418;10.074;2024-02-21T03:19:06;22.20;55.90
1175;DHT22;576;48.418;10.074;2024-02-21T03:21:34;22.20;55.80
1175;DHT22;576;48.418;10.074;2024-02-21T03:24:02;22.20;55.90
1175;DHT22;576;48.418;10.074;2024-02-21T03:26:31;22.20;55.90
1175;DHT22;576;48.418;10.074;2024-02-21T03:28:59;22.10;56.00
1175;DHT22;576;48.418;10.074;2024-02-21T03:31:28;22.10;56.00
1175;DHT22;576;48.418;10.074;2024-02-21T03:33:59;22.10;55.90
1175;DHT22;576;48.418;10.074;2024-02-21T03:36:28;22.10;56.00
1175;DHT22;576;48.418;10.074;2024-02-21T03:38:56;22.10;56.00
1175;DHT22;576;48.418;10.074;2024-02-21T03:41:24;22.10;56.00
1175;DHT22;576;48.418;10.074;2024-02-21T03:43:53;22.10;56.00
1175;DHT22;576;48.418;10.074;2024-02-21T03:46:21;22.10;56.00
1175;DHT22;576;48.418;10.074;2024-02-21T03:48:49;22.10;56.00
1175;DHT22;576;48.418;10.074;2024-02-21T03:51:19;22.00;56.00
1175;DHT22;576;48.418;10.074;2024-02-21T03:53:47;22.10;56.00
1175;DHT22;576;48.418;10.074;2024-02-21T03:56:15;22.00;56.00
1175;DHT22;576;48.418;10.074;2024-02-21T03:58:44;22.00;56.00
1175;DHT22;576;48.418;10.074;2024-02-21T04:01:14;22.00;56.00
1175;DHT22;576;48.418;10.074;2024-02-21T04:03:43;22.00;56.00
1175;DHT22;576;48.418;10.074;2024-02-21T04:06:12;22.00;56.00
1175;DHT22;576;48.418;10.074;2024-02-21T04:08:41;22.00;56.00
1175;DHT22;576;48.418;10.074;2024-02-21T04:11:09;22.00;56.00
1175;DHT22;576;48.418;10.074;2024-02-21T04:13:38;22.00;56.00
1175;DHT22;576;48.418;10.074;2024-02-21T04:16:06;22.00;56.00
1175;DHT22;576;48.418;10.074;2024-02-21T04:18:34;22.00;56.00
1175;DHT22;576;48.418;10.074;2024-02-21T04:21:03;22.00;56.00
1175;DHT22;576;48.418;10.074;2024-02-21T04:23:31;22.00;56.00
1175;DHT22;576;48.418;10.074;2024-02-21T04:26:01;22.00;56.00
1175;DHT22;576;48.418;10.074;2024-02-21T04:28:29;21.90;56.00
1175;DHT22;576;48.418;10.074;2024-02-21T04:30:57;21.90;56.00
1175;DHT22;576;48.418;10.074;2024-02-21T04:33:25;21.90;56.00
1175;DHT22;576;48.418;10.074;2024-02-21T04:35:54;21.90;56.00
1175;DHT22;576;48.418;10.074;2024-02-21T04:38:22;21.90;56.00
1175;DHT22;576;48.418;10.074;2024-02-21T04:40:50;21.90;56.00
1175;DHT22;576;48.418;10.074;2024-02-21T04:43:20;21.90;55.90
1175;DHT22;576;48.418;10.074;2024-02-21T04:45:48;21.90;56.00
1175;DHT22;576;48.418;10.074;2024-02-21T04:48:17;21.90;56.00
1175;DHT22;576;48.418;10.074;2024-02-21T04:50:45;21.90;56.00
1175;DHT22;576;48.418;10.074;2024-02-21T04:53:14;21.90;56.00
1175;DHT22;576;48.418;10.074;2024-02-21T04:55:43;21.90;56.10
1175;DHT22;576;48.418;10.074;2024-02-21T04:58:11;21.90;56.00
1175;DHT22;576;48.418;10.074;2024-02-21T05:00:41;21.90;56.00
1175;DHT22;576;48.418;10.074;2024-02-21T05:03:09;22.00;56.00
1175;DHT22;576;48.418;10.074;2024-02-21T05:05:38;22.00;55.90
1175;DHT22;576;48.418;10.074;2024-02-21T05:08:06;22.00;55.90
1175;DHT22;576;48.418;10.074;2024-02-21T05:10:34;22.00;55.90
1175;DHT22;576;48.418;10.074;2024-02-21T05:13:03;22.10;55.80
1175;DHT22;576;48.418;10.074;2024-02-21T05:15:31;22.10;55.80
1175;DHT22;576;48.418;10.074;2024-02-21T05:18:01;22.10;55.80
1175;DHT22;576;48.418;10.074;2024-02-21T05:20:30;22.20;55.70
1175;DHT22;576;48.418;10.074;2024-02-21T05:22:58;22.20;55.70
1175;DHT22;576;48.418;10.074;2024-02-21T05:25:26;22.20;55.70
1175;DHT22;576;48.418;10.074;2024-02-21T05:27:55;22.20;55.60
1175;DHT22;576;48.418;10.074;2024-02-21T05:30:28;22.30;55.60
1175;DHT22;576;48.418;10.074;2024-02-21T05:32:56;22.30;55.60
1175;DHT22;576;48.418;10.074;2024-02-21T05:35:27;22.30;55.50
1175;DHT22;576;48.418;10.074;2024-02-21T05:37:55;22.40;55.50
1175;DHT22;576;48.418;10.074;2024-02-21T05:40:24;22.40;55.40
1175;DHT22;576;48.418;10.074;2024-02-21T05:42:52;22.40;55.30
1175;DHT22;576;48.418;10.074;2024-02-21T05:45:20;22.50;55.20
1175;DHT22;576;48.418;10.074;2024-02-21T05:47:48;22.50;55.10
1175;DHT22;576;48.418;10.074;2024-02-21T05:50:17;22.50;55.10
1175;DHT22;576;48.418;10.074;2024-02-21T05:52:47;22.50;55.00
1175;DHT22;576;48.418;10.074;2024-02-21T05:55:15;22.50;54.90
1175;DHT22;576;48.418;10.074;2024-02-21T05:57:44;22.50;55.00
1175;DHT22;576;48.418;10.074;2024-02-21T06:00:13;22.50;55.30
1175;DHT22;576;48.418;10.074;2024-02-21T06:02:42;22.50;55.60
1175;DHT22;576;48.418;10.074;2024-02-21T06:05:11;22.40;55.90
1175;DHT22;576;48.418;10.074;2024-02-21T06:07:40;22.40;56.10
1175;DHT22;576;48.418;10.074;2024-02-21T06:10:09;22.40;56.30
1175;DHT22;576;48.418;10.074;2024-02-21T06:12:38;22.40;56.50
1175;DHT22;576;48.418;10.074;2024-02-21T06:15:07;22.40;56.60
1175;DHT22;576;48.418;10.074;2024-02-21T06:17:35;22.30;56.80
1175;DHT22;576;48.418;10.074;2024-02-21T06:20:04;22.30;56.90
1175;DHT22;576;48.418;10.074;2024-02-21T06:22:33;22.30;57.00
1175;DHT22;576;48.418;10.074;2024-02-21T06:25:01;22.30;57.00
1175;DHT22;576;48.418;10.074;2024-02-21T06:27:31;22.20;57.10
1175;DHT22;576;48.418;10.074;2024-02-21T06:29:59;22.20;57.20
1175;DHT22;576;48.418;10.074;2024-02-21T06:32:27;22.20;57.20
1175;DHT22;576;48.418;10.074;2024-02-21T06:34:56;22.20;57.30
1175;DHT22;576;48.418;10.074;2024-02-21T06:37:24;22.20;57.20
1175;DHT22;576;48.418;10.074;2024-02-21T06:39:53;22.20;57.20
1175;DHT22;576;48.418;10.074;2024-02-21T06:42:24;22.20;57.10
1175;DHT22;576;48.418;10.074;2024-02-21T06:44:53;22.20;56.80
1175;DHT22;576;48.418;10.074;2024-02-21T06:47:24;22.20;56.50
1175;DHT22;576;48.418;10.074;2024-02-21T06:49:53;22.20;56.20
1175;DHT22;576;48.418;10.074;2024-02-21T06:52:21;22.20;55.80
1175;DHT22;576;48.418;10.074;2024-02-21T06:54:52;22.20;55.60
1175;DHT22;576;48.418;10.074;2024-02-21T06:57:20;22.20;55.20
1175;DHT22;576;48.418;10.074;2024-02-21T06:59:48;22.20;55.20
1175;DHT22;576;48.418;10.074;2024-02-21T07:02:18;22.20;55.10
1175;DHT22;576;48.418;10.074;2024-02-21T07:04:46;22.20;55.20
1175;DHT22;576;48.418;10.074;2024-02-21T07:07:14;22.20;55.40
1175;DHT22;576;48.418;10.074;2024-02-21T07:09:43;22.20;55.50
1175;DHT22;576;48.418;10.074;2024-02-21T07:12:11;22.20;55.70
1175;DHT22;576;48.418;10.074;2024-02-21T07:14:39;22.30;55.80
1175;DHT22;576;48.418;10.074;2024-02-21T07:17:08;22.30;55.90
1175;DHT22;576;48.418;10.074;2024-02-21T07:19:37;22.30;55.90
1175;DHT22;576;48.418;10.074;2024-02-21T07:22:06;22.30;56.00
1175;DHT22;576;48.418;10.074;2024-02-21T07:24:34;22.30;56.00
1175;DHT22;576;48.418;10.074;2024-02-21T07:27:02;22.30;56.00
1175;DHT22;576;48.418;10.074;2024-02-21T07:29:32;22.30;56.00
1175;DHT22;576;48.418;10.074;2024-02-21T07:32:00;22.40;56.00
1175;DHT22;576;48.418;10.074;2024-02-21T07:34:29;22.40;56.00
1175;DHT22;576;48.418;10.074;2024-02-21T07:36:59;22.40;56.00
1175;DHT22;576;48.418;10.074;2024-02-21T07:39:27;22.40;56.00
1175;DHT22;576;48.418;10.074;2024-02-21T07:41:55;22.40;55.90
1175;DHT22;576;48.418;10.074;2024-02-21T07:44:23;22.40;55.90
1175;DHT22;576;48.418;10.074;2024-02-21T07:46:52;22.40;55.90
1175;DHT22;576;48.418;10.074;2024-02-21T07:49:20;22.40;55.80
1175;DHT22;576;48.418;10.074;2024-02-21T07:51:48;22.40;55.90
1175;DHT22;576;48.418;10.074;2024-02-21T07:54:18;22.40;55.90
1175;DHT22;576;48.418;10.074;2024-02-21T07:56:47;22.40;55.70
1175;DHT22;576;48.418;10.074;2024-02-21T07:59:15;22.40;56.00
1175;DHT22;576;48.418;10.074;2024-02-21T08:01:43;22.30;55.90
1175;DHT22;576;48.418;10.074;2024-02-21T08:04:12;22.30;55.60
1175;DHT22;576;48.418;10.074;2024-02-21T08:06:41;22.30;56.00
1175;DHT22;576;48.418;10.074;2024-02-21T08:09:10;22.30;55.70
1175;DHT22;576;48.418;10.074;2024-02-21T08:11:40;22.20;55.70
1175;DHT22;576;48.418;10.074;2024-02-21T08:14:08;22.30;56.10
1175;DHT22;576;48.418;10.074;2024-02-21T08:16:36;22.30;55.90
1175;DHT22;576;48.418;10.074;2024-02-21T08:19:04;22.30;56.10
1175;DHT22;576;48.418;10.074;2024-02-21T08:21:33;22.30;55.90
1175;DHT22;576;48.418;10.074;2024-02-21T08:24:01;22.30;55.90
1175;DHT22;576;48.418;10.074;2024-02-21T08:26:29;22.30;56.00
1175;DHT22;576;48.418;10.074;2024-02-21T08:29:00;22.30;55.90
1175;DHT22;576;48.418;10.074;2024-02-21T08:31:28;22.30;55.70
1175;DHT22;576;48.418;10.074;2024-02-21T08:33:58;22.30;55.70
1175;DHT22;576;48.418;10.074;2024-02-21T08:36:30;22.30;55.70
1175;DHT22;576;48.418;10.074;2024-02-21T08:39:00;22.30;56.30
1175;DHT22;576;48.418;10.074;2024-02-21T08:41:31;22.30;56.10
1175;DHT22;576;48.418;10.074;2024-02-21T08:44:19;22.40;56.40
1175;DHT22;576;48.418;10.074;2024-02-21T08:46:47;22.50;56.20
1175;DHT22;576;48.418;10.074;2024-02-21T08:49:15;22.50;56.20
1175;DHT22;576;48.418;10.074;2024-02-21T08:51:44;22.50;56.20
1175;DHT22;576;48.418;10.074;2024-02-21T08:54:13;22.60;56.20
1175;DHT22;576;48.418;10.074;2024-02-21T08:56:41;22.60;56.30
1175;DHT22;576;48.418;10.074;2024-02-21T08:59:09;22.60;56.00
1175;DHT22;576;48.418;10.074;2024-02-21T09:01:39;22.70;56.00
1175;DHT22;576;48.418;10.074;2024-02-21T09:04:07;22.70;56.00
1175;DHT22;576;48.418;10.074;2024-02-21T09:06:36;22.70;56.20
1175;DHT22;576;48.418;10.074;2024-02-21T09:09:08;22.80;56.30
1175;DHT22;576;48.418;10.074;2024-02-21T09:11:37;22.80;56.20
1175;DHT22;576;48.418;10.074;2024-02-21T09:14:07;22.80;56.00
1175;DHT22;576;48.418;10.074;2024-02-21T09:16:35;22.80;56.10
1175;DHT22;576;48.418;10.074;2024-02-21T09:19:05;22.90;56.00
1175;DHT22;576;48.418;10.074;2024-02-21T09:21:34;22.90;56.00
1175;DHT22;576;48.418;10.074;2024-02-21T09:24:02;22.90;56.10
1175;DHT22;576;48.418;10.074;2024-02-21T09:26:31;22.90;56.20
1175;DHT22;576;48.418;10.074;2024-02-21T09:28:59;22.90;56.00
1175;DHT22;576;48.418;10.074;2024-02-21T09:31:28;22.90;56.20
1175;DHT22;576;48.418;10.074;2024-02-21T09:33:56;23.00;56.50
1175;DHT22;576;48.418;10.074;2024-02-21T09:36:26;23.00;56.50
1175;DHT22;576;48.418;10.074;2024-02-21T09:38:54;23.00;56.40
1175;DHT22;576;48.418;10.074;2024-02-21T09:41:26;23.00;56.10
1175;DHT22;576;48.418;10.074;2024-02-21T09:43:54;23.00;55.60
1175;DHT22;576;48.418;10.074;2024-02-21T09:46:28;23.00;55.50
1175;DHT22;576;48.418;10.074;2024-02-21T09:49:13;22.90;55.40
1175;DHT22;576;48.418;10.074;2024-02-21T09:51:49;22.90;55.50
1175;DHT22;576;48.418;10.074;2024-02-21T09:54:19;22.90;55.50
1175;DHT22;576;48.418;10.074;2024-02-21T09:56:48;22.90;55.70
1175;DHT22;576;48.418;10.074;2024-02-21T09:59:16;22.90;55.90
1175;DHT22;576;48.418;10.074;2024-02-21T10:01:45;22.90;55.90
1175;DHT22;576;48.418;10.074;2024-02-21T10:04:15;22.90;55.80
1175;DHT22;576;48.418;10.074;2024-02-21T10:06:43;22.90;56.00
1175;DHT22;576;48.418;10.074;2024-02-21T10:09:22;22.90;55.80
1175;DHT22;576;48.418;10.074;2024-02-21T10:11:51;22.90;55.90
1175;DHT22;576;48.418;10.074;2024-02-21T10:14:19;22.90;55.90
1175;DHT22;576;48.418;10.074;2024-02-21T10:16:48;22.90;55.90
1175;DHT22;576;48.418;10.074;2024-02-21T10:19:18;22.90;55.70
1175;DHT22;576;48.418;10.074;2024-02-21T10:22:01;23.00;56.00
1175;DHT22;576;48.418;10.074;2024-02-21T10:24:32;23.00;55.90
1175;DHT22;576;48.418;10.074;2024-02-21T10:27:02;23.00;56.00
1175;DHT22;576;48.418;10.074;2024-02-21T10:29:31;23.00;55.90
1175;DHT22;576;48.418;10.074;2024-02-21T10:32:06;23.10;55.90
1175;DHT22;576;48.418;10.074;2024-02-21T10:34:35;23.10;55.90
1175;DHT22;576;48.418;10.074;2024-02-21T10:37:05;23.10;55.80
1175;DHT22;576;48.418;10.074;2024-02-21T10:39:37;23.10;55.80
1175;DHT22;576;48.418;10.074;2024-02-21T10:42:06;23.20;55.70
1175;DHT22;576;48.418;10.074;2024-02-21T10:44:37;23.20;55.80
1175;DHT22;576;48.418;10.074;2024-02-21T10:47:08;23.20;55.70
1175;DHT22;576;48.418;10.074;2024-02-21T10:49:39;23.30;55.60
1175;DHT22;576;48.418;10.074;2024-02-21T10:52:13;23.40;55.50
1175;DHT22;576;48.418;10.074;2024-02-21T10:54:50;23.40;55.30
1175;DHT22;576;48.418;10.074;2024-02-21T10:57:21;23.50;55.30
1175;DHT22;576;48.418;10.074;2024-02-21T10:59:50;23.60;55.00
1175;DHT22;576;48.418;10.074;2024-02-21T11:02:19;23.70;54.90
1175;DHT22;576;48.418;10.074;2024-02-21T11:04:48;23.80;54.80
1175;DHT22;576;48.418;10.074;2024-02-21T11:07:19;24.00;54.60
1175;DHT22;576;48.418;10.074;2024-02-21T11:09:53;24.20;54.40
1175;DHT22;576;48.418;10.074;2024-02-21T11:12:23;24.30;54.20
1175;DHT22;576;48.418;10.074;2024-02-21T11:14:52;24.50;53.80
1175;DHT22;576;48.418;10.074;2024-02-21T11:17:21;24.60;53.80
1175;DHT22;576;48.418;10.074;2024-02-21T11:19:53;24.70;53.50
1175;DHT22;576;48.418;10.074;2024-02-21T11:22:21;24.70;53.50
1175;DHT22;576;48.418;10.074;2024-02-21T11:24:53;24.80;53.30
1175;DHT22;576;48.418;10.074;2024-02-21T11:27:22;24.90;53.10
1175;DHT22;576;48.418;10.074;2024-02-21T11:29:55;24.90;52.80
1175;DHT22;576;48.418;10.074;2024-02-21T11:32:25;25.00;52.80
1175;DHT22;576;48.418;10.074;2024-02-21T11:34:55;25.00;52.70
1175;DHT22;576;48.418;10.074;2024-02-21T11:37:25;25.00;52.50
1175;DHT22;576;48.418;10.074;2024-02-21T11:39:57;25.00;52.50
1175;DHT22;576;48.418;10.074;2024-02-21T11:42:26;25.00;52.40
1175;DHT22;576;48.418;10.074;2024-02-21T11:44:56;24.90;52.50
1175;DHT22;576;48.418;10.074;2024-02-21T11:47:25;24.90;52.70
1175;DHT22;576;48.418;10.074;2024-02-21T11:49:53;24.80;53.00
1175;DHT22;576;48.418;10.074;2024-02-21T11:52:23;24.70;53.10
1175;DHT22;576;48.418;10.074;2024-02-21T11:54:53;24.60;53.00
1175;DHT22;576;48.418;10.074;2024-02-21T11:57:26;24.60;53.30
1175;DHT22;576;48.418;10.074;2024-02-21T11:59:54;24.50;53.30
1175;DHT22;576;48.418;10.074;2024-02-21T12:02:26;24.40;53.40
1175;DHT22;576;48.418;10.074;2024-02-21T12:04:55;24.40;53.80
1175;DHT22;576;48.418;10.074;2024-02-21T12:07:24;24.40;54.30
1175;DHT22;576;48.418;10.074;2024-02-21T12:09:59;24.30;54.60
1175;DHT22;576;48.418;10.074;2024-02-21T12:12:29;24.30;54.70
1175;DHT22;576;48.418;10.074;2024-02-21T12:14:57;24.30;54.70
1175;DHT22;576;48.418;10.074;2024-02-21T12:17:26;24.30;54.70
1175;DHT22;576;48.418;10.074;2024-02-21T12:19:54;24.30;54.80
1175;DHT22;576;48.418;10.074;2024-02-21T12:22:22;24.20;54.80
1175;DHT22;576;48.418;10.074;2024-02-21T12:24:53;24.20;54.90
1175;DHT22;576;48.418;10.074;2024-02-21T12:27:21;24.20;55.20
1175;DHT22;576;48.418;10.074;2024-02-21T12:29:52;24.20;55.00
1175;DHT22;576;48.418;10.074;2024-02-21T12:32:20;24.10;55.40
1175;DHT22;576;48.418;10.074;2024-02-21T12:34:48;24.20;55.60
1175;DHT22;576;48.418;10.074;2024-02-21T12:37:22;24.10;55.70
1175;DHT22;576;48.418;10.074;2024-02-21T12:39:50;24.10;55.90
1175;DHT22;576;48.418;10.074;2024-02-21T12:42:18;24.20;55.90
1175;DHT22;576;48.418;10.074;2024-02-21T12:44:47;24.20;56.00
1175;DHT22;576;48.418;10.074;2024-02-21T12:47:16;24.20;56.00
1175;DHT22;576;48.418;10.074;2024-02-21T12:49:46;24.20;56.00
1175;DHT22;576;48.418;10.074;2024-02-21T12:52:15;24.30;55.90
1175;DHT22;576;48.418;10.074;2024-02-21T12:54:44;24.30;55.90
1175;DHT22;576;48.418;10.074;2024-02-21T12:57:12;24.40;55.60
1175;DHT22;576;48.418;10.074;2024-02-21T12:59:41;24.50;55.50
1175;DHT22;576;48.418;10.074;2024-02-21T13:02:09;24.50;55.40
1175;DHT22;576;48.418;10.074;2024-02-21T13:04:39;24.60;55.70
1175;DHT22;576;48.418;10.074;2024-02-21T13:07:08;24.60;55.40
1175;DHT22;576;48.418;10.074;2024-02-21T13:09:36;24.70;55.30
1175;DHT22;576;48.418;10.074;2024-02-21T13:12:05;24.70;55.40
1175;DHT22;576;48.418;10.074;2024-02-21T13:14:34;24.80;55.40
1175;DHT22;576;48.418;10.074;2024-02-21T13:17:03;24.90;55.40
1175;DHT22;576;48.418;10.074;2024-02-21T13:19:32;24.90;55.30
1175;DHT22;576;48.418;10.074;2024-02-21T13:22:02;24.90;54.70
1175;DHT22;576;48.418;10.074;2024-02-21T13:24:30;24.80;54.10
1175;DHT22;576;48.418;10.074;2024-02-21T13:26:58;24.70;53.70
1175;DHT22;576;48.418;10.074;2024-02-21T13:29:27;24.70;53.60
1175;DHT22;576;48.418;10.074;2024-02-21T13:31:55;24.60;53.40
1175;DHT22;576;48.418;10.074;2024-02-21T13:34:23;24.60;53.30
1175;DHT22;576;48.418;10.074;2024-02-21T13:36:52;24.50;53.20
1175;DHT22;576;48.418;10.074;2024-02-21T13:39:22;24.40;53.40
1175;DHT22;576;48.418;10.074;2024-02-21T13:41:50;24.40;53.20
1175;DHT22;576;48.418;10.074;2024-02-21T13:44:18;24.30;53.20
1175;DHT22;576;48.418;10.074;2024-02-21T13:46:47;24.30;53.50
1175;DHT22;576;48.418;10.074;2024-02-21T13:49:15;24.30;53.30
1175;DHT22;576;48.418;10.074;2024-02-21T13:51:46;24.30;53.50
1175;DHT22;576;48.418;10.074;2024-02-21T13:54:14;24.40;53.90
1175;DHT22;576;48.418;10.074;2024-02-21T13:56:45;24.40;54.00
1175;DHT22;576;48.418;10.074;2024-02-21T13:59:13;24.40;54.20
1175;DHT22;576;48.418;10.074;2024-02-21T14:01:42;24.40;54.40
1175;DHT22;576;48.418;10.074;2024-02-21T14:04:11;24.40;54.50
1175;DHT22;576;48.418;10.074;2024-02-21T14:06:39;24.40;54.40
1175;DHT22;576;48.418;10.074;2024-02-21T14:09:10;24.40;54.60
1175;DHT22;576;48.418;10.074;2024-02-21T14:11:38;24.40;54.80
1175;DHT22;576;48.418;10.074;2024-02-21T14:14:10;24.30;54.90
1175;DHT22;576;48.418;10.074;2024-02-21T14:16:38;24.30;55.00
1175;DHT22;576;48.418;10.074;2024-02-21T14:19:07;24.30;55.10
1175;DHT22;576;48.418;10.074;2024-02-21T14:21:36;24.30;55.20
1175;DHT22;576;48.418;10.074;2024-02-21T14:24:05;24.30;55.20
1175;DHT22;576;48.418;10.074;2024-02-21T14:26:34;24.30;55.50
1175;DHT22;576;48.418;10.074;2024-02-21T14:29:03;24.20;55.40
1175;DHT22;576;48.418;10.074;2024-02-21T14:31:32;24.20;55.10
1175;DHT22;576;48.418;10.074;2024-02-21T14:34:01;24.20;55.40
1175;DHT22;576;48.418;10.074;2024-02-21T14:36:30;24.10;55.30
1175;DHT22;576;48.418;10.074;2024-02-21T14:39:00;24.10;55.40
1175;DHT22;576;48.418;10.074;2024-02-21T14:41:28;24.10;55.40
1175;DHT22;576;48.418;10.074;2024-02-21T14:43:56;24.10;55.50
1175;DHT22;576;48.418;10.074;2024-02-21T14:46:33;24.10;55.70
1175;DHT22;576;48.418;10.074;2024-02-21T14:49:02;24.10;55.80
1175;DHT22;576;48.418;10.074;2024-02-21T14:51:31;24.10;55.90
1175;DHT22;576;48.418;10.074;2024-02-21T14:54:00;24.10;56.00
1175;DHT22;576;48.418;10.074;2024-02-21T14:56:28;24.10;55.90
1175;DHT22;576;48.418;10.074;2024-02-21T14:58:56;24.00;55.90
1175;DHT22;576;48.418;10.074;2024-02-21T15:01:38;24.00;56.00
1175;DHT22;576;48.418;10.074;2024-02-21T15:04:07;24.00;56.00
1175;DHT22;576;48.418;10.074;2024-02-21T15:06:36;24.00;56.00
1175;DHT22;576;48.418;10.074;2024-02-21T15:09:04;24.00;56.00
1175;DHT22;576;48.418;10.074;2024-02-21T15:11:35;24.00;56.00
1175;DHT22;576;48.418;10.074;2024-02-21T15:14:04;24.00;56.00
1175;DHT22;576;48.418;10.074;2024-02-21T15:16:32;24.00;56.10
1175;DHT22;576;48.418;10.074;2024-02-21T15:19:02;24.00;56.20
1175;DHT22;576;48.418;10.074;2024-02-21T15:21:30;24.00;56.30
1175;DHT22;576;48.418;10.074;2024-02-21T15:23:59;24.00;56.30
1175;DHT22;576;48.418;10.074;2024-02-21T15:26:31;24.00;56.40
1175;DHT22;576;48.418;10.074;2024-02-21T15:28:59;24.00;56.40
1175;DHT22;576;48.418;10.074;2024-02-21T15:31:28;24.10;56.50
1175;DHT22;576;48.418;10.074;2024-02-21T15:33:56;24.10;56.50
1175;DHT22;576;48.418;10.074;2024-02-21T15:36:26;24.10;56.50
1175;DHT22;576;48.418;10.074;2024-02-21T15:38:55;24.10;56.60
1175;DHT22;576;48.418;10.074;2024-02-21T15:41:26;24.10;56.60
1175;DHT22;576;48.418;10.074;2024-02-21T15:43:54;24.10;56.70
1175;DHT22;576;48.418;10.074;2024-02-21T15:46:24;24.10;56.70
1175;DHT22;576;48.418;10.074;2024-02-21T15:52:54;24.10;56.80
1175;DHT22;576;48.418;10.074;2024-02-21T15:55:22;24.10;56.80
1175;DHT22;576;48.418;10.074;2024-02-21T15:57:51;24.10;56.70
1175;DHT22;576;48.418;10.074;2024-02-21T16:00:19;24.10;56.70
1175;DHT22;576;48.418;10.074;2024-02-21T16:02:49;24.10;56.60
1175;DHT22;576;48.418;10.074;2024-02-21T16:05:20;24.10;56.50
1175;DHT22;576;48.418;10.074;2024-02-21T16:07:49;24.10;56.00
1175;DHT22;576;48.418;10.074;2024-02-21T16:10:18;24.10;55.50
1175;DHT22;576;48.418;10.074;2024-02-21T16:12:47;24.00;55.30
1175;DHT22;576;48.418;10.074;2024-02-21T16:15:18;24.00;55.20
1175;DHT22;576;48.418;10.074;2024-02-21T16:17:46;23.90;55.10